This is the latest recevied weather packets stored in our database for station/object SQ7KHZ-10. If no packets are shown the sender has not sent any weather packets the latest 10 day(s).
| Time | Temp. | Humidity | Pressure | Rain* | Wind** | Luminosity | Snow |
|---|---|---|---|---|---|---|---|
| 1777983950 | 26.11° C | 29% | 1007.2 hPa | 0 mm | - | - | - |
| 1777982738 | 25.56° C | 31% | 1007.4 hPa | 0 mm | - | - | - |
| 1777981527 | 25° C | 37% | 1007.5 hPa | 0 mm | - | - | - |
| 1777980327 | 25° C | 32% | 1007.6 hPa | 0 mm | - | - | - |
| 1777979117 | 24.44° C | 35% | 1007.9 hPa | 0 mm | - | - | - |
| 1777977915 | 25.56° C | 32% | 1008 hPa | 0 mm | - | - | - |
| 1777976704 | 26.11° C | 32% | 1008.2 hPa | 0 mm | - | - | - |
| 1777975480 | 25° C | 33% | 1008.3 hPa | 0 mm | - | - | - |
| 1777974273 | 25° C | 40% | 1008.7 hPa | 0 mm | - | - | - |
| 1777973065 | 25° C | 42% | 1009 hPa | 0 mm | - | - | - |
| 1777971844 | 24.44° C | 44% | 1009.2 hPa | 0 mm | - | - | - |
| 1777970623 | 23.89° C | 44% | 1009.5 hPa | 0 mm | - | - | - |
| 1777969414 | 24.44° C | 43% | 1009.6 hPa | 0 mm | - | - | - |
| 1777968207 | 23.89° C | 40% | 1009.7 hPa | 0 mm | - | - | - |
| 1777966999 | 23.33° C | 40% | 1009.8 hPa | 0 mm | - | - | - |
| 1777965792 | 22.78° C | 39% | 1009.8 hPa | 0 mm | - | - | - |
| 1777964582 | 21.67° C | 43% | 1010 hPa | 0 mm | - | - | - |
| 1777963372 | 20.56° C | 44% | 1010.1 hPa | 0 mm | - | - | - |
| 1777962151 | 19.44° C | 51% | 1010.2 hPa | 0 mm | - | - | - |
| 1777960943 | 17.78° C | 58% | 1010.3 hPa | 0 mm | - | - | - |
| 1777959734 | 15.56° C | 61% | 1010.4 hPa | 0 mm | - | - | - |
| 1777958523 | 14.44° C | 64% | 1010.5 hPa | 0 mm | - | - | - |
| 1777957314 | 12.78° C | 71% | 1010.5 hPa | 0 mm | - | - | - |
| 1777956097 | 12.22° C | 76% | 1010.5 hPa | 0 mm | - | - | - |
| 1777954895 | 11.67° C | 78% | 1010.5 hPa | 0 mm | - | - | - |
* Rain latest hour (hover to see other rain measurements)
** Current wind speed in m/s (hover to see current wind gust speed)